createdAt,value
2022-12-03T00:01:01.126Z,23.80
2022-12-03T00:03:28.085Z,19.13
2022-12-03T00:05:54.599Z,21.02
2022-12-03T00:08:21.060Z,23.20
2022-12-03T00:10:47.523Z,19.10
2022-12-03T00:13:13.973Z,20.30
2022-12-03T00:15:40.649Z,25.08
2022-12-03T00:18:07.150Z,21.58
2022-12-03T00:20:33.604Z,20.88
2022-12-03T00:23:00.077Z,21.27
2022-12-03T00:25:26.570Z,24.20
2022-12-03T00:27:53.103Z,22.17
2022-12-03T00:30:19.602Z,20.30
2022-12-03T00:32:46.021Z,21.13
2022-12-03T00:35:12.544Z,19.83
2022-12-03T00:37:39.042Z,21.13
2022-12-03T00:40:05.859Z,15.95
2022-12-03T00:42:32.362Z,14.82
2022-12-03T00:44:58.838Z,15.45
2022-12-03T00:47:25.371Z,15.35
2022-12-03T00:49:51.780Z,23.30
2022-12-03T00:52:18.335Z,16.52
2022-12-03T00:54:45.389Z,20.65
2022-12-03T00:57:11.822Z,17.70
2022-12-03T00:59:38.443Z,15.85
2022-12-03T01:02:04.980Z,16.48
2022-12-03T01:04:32.771Z,16.33
2022-12-03T01:06:59.785Z,16.17
2022-12-03T01:09:26.502Z,14.60
2022-12-03T01:11:52.982Z,14.55
2022-12-03T01:14:19.986Z,22.35
2022-12-03T01:16:46.776Z,14.45
2022-12-03T01:19:16.412Z,13.90
2022-12-03T01:21:43.848Z,13.00
2022-12-03T01:24:12.238Z,18.48
2022-12-03T01:26:39.904Z,15.90
2022-12-03T01:29:07.602Z,14.00
2022-12-03T01:31:54.989Z,12.07
2022-12-03T01:34:22.853Z,15.80
2022-12-03T01:36:52.593Z,12.77
2022-12-03T01:39:20.261Z,17.23
2022-12-03T01:41:48.961Z,16.85
2022-12-03T01:44:36.687Z,19.30
2022-12-03T01:47:05.156Z,16.83
2022-12-03T01:49:52.897Z,17.08
2022-12-03T01:52:21.183Z,17.80
2022-12-03T01:54:49.404Z,17.60
2022-12-03T01:57:27.688Z,15.13
2022-12-03T01:59:55.514Z,14.32
2022-12-03T02:02:27.167Z,14.48
2022-12-03T02:04:54.414Z,13.73
2022-12-03T02:07:21.177Z,13.52
2022-12-03T02:09:47.895Z,16.75
2022-12-03T02:12:16.059Z,16.92
2022-12-03T02:14:42.708Z,16.23
2022-12-03T02:17:09.355Z,17.33
2022-12-03T02:19:35.913Z,16.52
2022-12-03T02:22:08.084Z,18.50
2022-12-03T02:24:41.991Z,15.93
2022-12-03T02:27:08.385Z,15.57
2022-12-03T02:29:34.931Z,15.73
2022-12-03T02:32:02.570Z,17.15
2022-12-03T02:34:36.245Z,16.25
2022-12-03T02:37:04.613Z,18.27
2022-12-03T02:39:33.817Z,14.85
2022-12-03T02:42:20.466Z,18.42
2022-12-03T02:44:48.279Z,18.27
2022-12-03T02:47:15.966Z,15.38
2022-12-03T02:49:43.914Z,19.13
2022-12-03T02:52:13.877Z,16.70
2022-12-03T02:54:44.191Z,16.25
2022-12-03T02:57:12.829Z,17.58
2022-12-03T02:59:40.623Z,14.75
2022-12-03T03:02:14.024Z,18.48
2022-12-03T03:04:42.555Z,17.15
2022-12-03T03:07:09.906Z,16.42
2022-12-03T03:09:36.512Z,13.80
2022-12-03T03:12:02.980Z,12.27
2022-12-03T03:14:31.852Z,14.10
2022-12-03T03:16:58.393Z,13.70
2022-12-03T03:19:25.578Z,11.65
2022-12-03T03:21:54.084Z,12.07
2022-12-03T03:24:22.200Z,10.43
2022-12-03T03:26:50.345Z,11.05
2022-12-03T03:29:18.756Z,15.82
2022-12-03T03:31:47.504Z,14.45
2022-12-03T03:34:15.718Z,12.88
2022-12-03T03:36:44.248Z,13.00
2022-12-03T03:39:12.364Z,11.35
2022-12-03T03:41:40.921Z,13.70
2022-12-03T03:44:07.613Z,15.65
2022-12-03T03:46:37.050Z,12.85
2022-12-03T03:49:04.447Z,12.55
2022-12-03T03:51:32.662Z,11.88
2022-12-03T03:54:01.751Z,12.73
2022-12-03T03:56:29.726Z,11.15
2022-12-03T03:58:57.483Z,11.85
2022-12-03T04:01:24.209Z,14.45
2022-12-03T04:03:52.570Z,12.40
2022-12-03T04:06:19.365Z,11.63
2022-12-03T04:08:45.853Z,10.18
2022-12-03T04:11:34.420Z,12.40
2022-12-03T04:14:02.501Z,11.10
2022-12-03T04:16:30.363Z,11.57
2022-12-03T04:18:58.179Z,12.13
2022-12-03T04:21:44.397Z,13.07
2022-12-03T04:24:12.130Z,15.50
2022-12-03T04:26:58.293Z,11.18
2022-12-03T04:29:26.330Z,10.38
2022-12-03T04:32:28.788Z,10.88
2022-12-03T04:35:13.835Z,13.27
2022-12-03T04:37:41.658Z,11.38
2022-12-03T04:40:29.275Z,12.98
2022-12-03T04:42:55.722Z,13.30
2022-12-03T04:45:23.349Z,11.95
2022-12-03T04:47:50.830Z,12.60
2022-12-03T04:50:18.649Z,11.77
2022-12-03T04:52:46.439Z,12.80
2022-12-03T04:55:14.302Z,11.43
2022-12-03T04:57:42.413Z,11.30
2022-12-03T05:00:10.704Z,13.07
2022-12-03T05:02:40.664Z,13.60
2022-12-03T05:05:08.564Z,13.05
2022-12-03T05:07:35.039Z,10.95
2022-12-03T05:10:05.368Z,12.40
2022-12-03T05:12:33.114Z,13.63
2022-12-03T05:15:00.996Z,14.68
2022-12-03T05:17:28.571Z,12.00
2022-12-03T05:20:15.016Z,13.38
2022-12-03T05:22:42.696Z,13.55
2022-12-03T05:25:10.432Z,14.20
2022-12-03T05:27:38.144Z,13.68
2022-12-03T05:30:06.077Z,17.52
2022-12-03T05:32:33.875Z,14.60
2022-12-03T05:35:01.490Z,12.98
2022-12-03T05:37:29.378Z,14.02
2022-12-03T05:39:57.177Z,13.50
2022-12-03T05:42:43.212Z,20.13
2022-12-03T05:45:11.017Z,13.05
2022-12-03T05:47:38.605Z,12.85
2022-12-03T05:50:06.544Z,16.02
2022-12-03T05:52:32.953Z,17.48
2022-12-03T05:54:59.462Z,24.75
2022-12-03T05:57:25.880Z,17.95
2022-12-03T05:59:52.261Z,16.02
2022-12-03T06:02:18.764Z,18.50
2022-12-03T06:04:45.308Z,16.25
2022-12-03T06:07:14.318Z,17.23
2022-12-03T06:09:41.950Z,19.48
2022-12-03T06:12:11.305Z,18.00
2022-12-03T06:14:37.699Z,19.27
2022-12-03T06:17:05.036Z,20.63
2022-12-03T06:19:31.495Z,17.17
2022-12-03T06:21:57.921Z,18.40
2022-12-03T06:24:24.393Z,17.50
2022-12-03T06:26:50.821Z,18.77
2022-12-03T06:29:17.290Z,17.00
2022-12-03T06:31:43.771Z,16.30
2022-12-03T06:34:10.287Z,15.55
2022-12-03T06:36:36.786Z,14.43
2022-12-03T06:39:03.322Z,15.25
2022-12-03T06:41:29.750Z,19.70
2022-12-03T06:43:56.228Z,17.08
2022-12-03T06:46:22.892Z,17.30
2022-12-03T06:48:49.352Z,16.45
2022-12-03T06:51:15.746Z,20.15
2022-12-03T06:53:42.153Z,18.63
2022-12-03T06:56:08.580Z,16.48
2022-12-03T06:58:35.062Z,16.85
2022-12-03T07:01:01.609Z,20.67
2022-12-03T07:03:28.070Z,16.85
2022-12-03T07:05:54.515Z,22.23
2022-12-03T07:08:20.982Z,20.88
2022-12-03T07:10:47.497Z,20.45
2022-12-03T07:13:13.981Z,21.75
2022-12-03T07:15:41.731Z,20.02
2022-12-03T07:18:08.193Z,21.13
2022-12-03T07:20:34.576Z,186.05
2022-12-03T07:23:01.148Z,34.13
2022-12-03T07:25:27.590Z,30.08
2022-12-03T07:27:53.988Z,21.98
2022-12-03T07:30:20.865Z,27.42
2022-12-03T07:32:47.470Z,26.35
2022-12-03T07:35:13.878Z,24.52
2022-12-03T07:37:40.297Z,23.90
2022-12-03T07:40:07.299Z,29.13
2022-12-03T07:42:33.775Z,21.17
2022-12-03T07:45:00.215Z,20.10
2022-12-03T07:47:26.725Z,19.67
2022-12-03T07:49:53.157Z,22.17
2022-12-03T07:52:19.543Z,23.77
2022-12-03T07:54:45.960Z,26.30
2022-12-03T07:57:12.421Z,28.00
2022-12-03T07:59:38.890Z,23.92
2022-12-03T08:02:05.375Z,23.48
2022-12-03T08:04:31.970Z,27.35
2022-12-03T08:06:59.504Z,23.63
2022-12-03T08:09:26.631Z,22.90
2022-12-03T14:38:50.255Z,30.42
2022-12-03T14:41:35.380Z,32.47
2022-12-03T14:44:01.839Z,730.88
2022-12-03T14:46:28.576Z,160.38
2022-12-03T14:48:55.170Z,35.17
2022-12-03T14:51:21.679Z,359.02
2022-12-03T14:53:48.163Z,41.40
2022-12-03T14:56:14.575Z,139.05
2022-12-03T14:58:41.085Z,81.53
2022-12-03T15:01:07.690Z,143.63
2022-12-03T15:03:34.215Z,144.00
2022-12-03T15:06:00.743Z,100.80
2022-12-03T15:08:30.103Z,58.08
2022-12-03T15:10:56.570Z,39.65
2022-12-03T15:13:23.176Z,94.82
2022-12-03T15:15:49.595Z,74.38
2022-12-03T15:18:16.002Z,121.55
2022-12-03T15:20:42.463Z,126.03
2022-12-03T15:23:14.080Z,255.93
2022-12-03T15:25:41.126Z,127.63
2022-12-03T15:28:07.548Z,109.43
2022-12-03T15:30:37.026Z,84.57
2022-12-03T15:33:03.661Z,92.03
2022-12-03T15:35:30.635Z,570.83
2022-12-03T15:37:57.130Z,349.08
2022-12-03T15:40:24.386Z,225.32
2022-12-03T15:42:50.903Z,79.65
2022-12-03T15:45:17.523Z,59.55
2022-12-03T15:47:44.040Z,55.72
2022-12-03T15:50:10.716Z,59.63
2022-12-03T15:52:37.178Z,61.33
2022-12-03T15:55:04.106Z,53.22
2022-12-03T15:57:31.216Z,60.47
2022-12-03T15:59:57.716Z,53.40
2022-12-03T16:02:24.281Z,45.60
2022-12-03T16:04:50.735Z,41.70
2022-12-03T16:07:17.189Z,42.08
2022-12-03T16:09:43.717Z,38.53
2022-12-03T16:12:10.153Z,57.67
2022-12-03T16:14:36.602Z,50.38
2022-12-03T16:17:03.225Z,44.47
2022-12-03T16:19:29.669Z,38.63
2022-12-03T16:21:56.133Z,35.58
2022-12-03T16:24:22.738Z,45.85
2022-12-03T16:26:49.159Z,39.30
2022-12-03T16:29:15.628Z,38.50
2022-12-03T16:31:42.160Z,47.55
2022-12-03T16:34:08.643Z,52.10
2022-12-03T16:36:35.032Z,357.35
2022-12-03T16:39:01.576Z,767.13
2022-12-03T16:41:28.049Z,783.38
2022-12-03T16:43:54.658Z,376.35
2022-12-03T16:46:25.600Z,394.20
2022-12-03T16:48:53.058Z,265.05
2022-12-03T16:51:19.784Z,206.50
2022-12-03T16:53:46.276Z,211.15
2022-12-03T16:56:12.653Z,276.15
2022-12-03T16:58:39.138Z,115.57
2022-12-03T17:01:05.720Z,64.18
2022-12-03T17:03:33.967Z,47.88
2022-12-03T17:06:00.843Z,43.65
2022-12-03T17:08:27.486Z,40.70
2022-12-03T17:10:54.016Z,38.38
2022-12-03T17:13:20.863Z,41.55
2022-12-03T17:15:47.473Z,46.13
2022-12-03T17:18:13.956Z,40.35
2022-12-03T17:20:40.574Z,35.75
2022-12-03T17:23:07.436Z,41.03
2022-12-03T17:25:34.506Z,43.90
2022-12-03T17:28:01.591Z,35.67
2022-12-03T17:30:28.043Z,37.75
2022-12-03T17:32:54.521Z,37.72
2022-12-03T17:35:20.939Z,51.42
2022-12-03T17:37:47.335Z,42.80
2022-12-03T17:40:14.395Z,44.17
2022-12-03T17:42:40.914Z,39.53
2022-12-03T17:45:07.784Z,35.08
2022-12-03T17:47:34.239Z,30.98
2022-12-03T17:50:00.699Z,34.83
2022-12-03T17:52:27.147Z,37.53
2022-12-03T17:55:12.828Z,31.85
2022-12-03T17:57:40.118Z,35.47
2022-12-03T18:00:06.962Z,32.45
2022-12-03T18:02:33.437Z,32.72
2022-12-03T18:04:59.947Z,29.48
2022-12-03T18:07:26.423Z,28.63
2022-12-03T18:10:08.136Z,34.85
2022-12-03T18:12:34.577Z,33.65
2022-12-03T18:15:01.002Z,34.33
2022-12-03T18:17:27.471Z,31.25
2022-12-03T18:19:54.251Z,30.30
2022-12-03T18:22:21.013Z,27.77
2022-12-03T18:24:51.509Z,35.47
2022-12-03T18:27:19.750Z,26.20
2022-12-03T18:29:46.137Z,27.98
2022-12-03T18:32:27.566Z,33.60
2022-12-03T18:37:21.585Z,28.63
2022-12-03T18:39:48.084Z,33.13
2022-12-03T18:42:21.813Z,30.80
2022-12-03T18:44:49.930Z,36.78
2022-12-03T18:47:18.230Z,29.58
2022-12-03T18:49:44.753Z,26.02
2022-12-03T18:52:14.817Z,30.45
2022-12-03T18:54:41.356Z,26.50
2022-12-03T18:57:07.900Z,31.30
2022-12-03T18:59:34.417Z,32.58
2022-12-03T19:02:00.875Z,28.27
2022-12-03T19:04:27.501Z,30.75
2022-12-03T19:06:54.228Z,36.17
2022-12-03T19:09:20.747Z,27.83
2022-12-03T19:11:47.240Z,26.83
2022-12-03T19:14:13.662Z,31.38
2022-12-03T19:16:40.906Z,28.35
2022-12-03T19:19:08.250Z,29.35
2022-12-03T19:21:34.996Z,28.77
2022-12-03T19:24:23.804Z,29.85
2022-12-03T19:26:48.675Z,26.98
2022-12-03T19:29:15.449Z,30.55
2022-12-03T19:31:42.079Z,34.88
2022-12-03T19:34:08.594Z,27.65
2022-12-03T19:36:35.009Z,27.02
2022-12-03T19:39:01.826Z,26.38
2022-12-03T19:41:30.674Z,31.10
2022-12-03T19:43:57.754Z,33.80
2022-12-03T19:46:25.344Z,30.63
2022-12-03T19:48:51.887Z,32.30
2022-12-03T19:51:35.289Z,31.38
2022-12-03T19:54:06.323Z,35.25
2022-12-03T19:56:32.821Z,29.55
2022-12-03T19:58:59.310Z,28.00
2022-12-03T20:03:54.228Z,30.13
2022-12-03T20:06:25.352Z,27.15
2022-12-03T20:08:55.542Z,27.40
2022-12-03T20:11:23.352Z,25.75
2022-12-03T20:13:52.929Z,28.98
2022-12-03T20:16:19.417Z,25.67
2022-12-03T20:18:46.845Z,27.33
2022-12-03T20:21:13.917Z,25.90
2022-12-03T20:23:40.440Z,25.80
2022-12-03T20:26:07.905Z,21.27
2022-12-03T20:28:34.486Z,23.15
2022-12-03T20:31:02.194Z,23.83
2022-12-03T20:33:28.622Z,23.33
2022-12-03T20:35:55.622Z,21.73
2022-12-03T20:38:22.817Z,22.90
2022-12-03T20:40:49.683Z,20.88
2022-12-03T20:43:16.581Z,22.80
2022-12-03T20:45:43.354Z,22.73
2022-12-03T20:48:09.936Z,26.05
2022-12-03T20:50:39.513Z,24.92
2022-12-03T20:53:23.662Z,20.33
2022-12-03T20:55:58.100Z,21.20
2022-12-03T20:58:24.821Z,24.02
2022-12-03T21:00:51.345Z,27.13
2022-12-03T21:03:17.832Z,23.92
2022-12-03T21:05:44.341Z,26.42
2022-12-03T21:08:11.162Z,26.92
2022-12-03T21:10:44.986Z,31.73
2022-12-03T21:13:15.408Z,29.17
2022-12-03T21:15:42.385Z,31.92
2022-12-03T21:18:10.247Z,24.17
2022-12-03T21:20:40.285Z,23.33
2022-12-03T21:23:06.782Z,24.30
2022-12-03T21:25:34.074Z,22.67
2022-12-03T21:28:00.526Z,17.98
2022-12-03T21:30:27.051Z,21.33
2022-12-03T21:32:53.604Z,21.42
2022-12-03T21:35:20.017Z,20.10
2022-12-03T21:37:46.618Z,20.45
2022-12-03T21:40:13.129Z,23.35
2022-12-03T21:42:39.598Z,23.08
2022-12-03T21:45:06.484Z,20.05
2022-12-03T21:47:37.348Z,26.02
2022-12-03T21:50:05.223Z,17.67
2022-12-03T21:52:32.134Z,19.85
2022-12-03T21:54:58.539Z,18.88
2022-12-03T21:57:25.014Z,17.20
2022-12-03T21:59:51.563Z,17.85
2022-12-03T22:02:18.201Z,22.63
2022-12-03T22:04:48.978Z,20.08
2022-12-03T22:07:15.470Z,16.75
2022-12-03T22:09:41.911Z,17.17
2022-12-03T22:12:08.354Z,16.55
2022-12-03T22:14:34.880Z,16.67
2022-12-03T22:17:01.318Z,15.18
2022-12-03T22:19:27.727Z,14.30
2022-12-03T22:21:54.131Z,14.40
2022-12-03T22:24:20.611Z,14.10
2022-12-03T22:26:47.637Z,11.57
2022-12-03T22:29:14.072Z,14.63
2022-12-03T22:31:40.485Z,16.05
2022-12-03T22:34:06.904Z,13.23
2022-12-03T22:36:33.398Z,16.02
2022-12-03T22:38:59.820Z,14.75
2022-12-03T22:41:26.233Z,12.20
2022-12-03T22:43:52.631Z,12.35
2022-12-03T22:46:19.131Z,13.07
2022-12-03T22:48:46.682Z,11.60
2022-12-03T22:51:15.064Z,10.40
2022-12-03T22:53:41.535Z,12.65
2022-12-03T22:56:08.104Z,9.43
2022-12-03T22:58:34.578Z,10.52
2022-12-03T23:01:03.194Z,11.00
2022-12-03T23:03:30.005Z,10.50
2022-12-03T23:05:56.589Z,13.75
2022-12-03T23:08:23.018Z,9.07
2022-12-03T23:10:52.663Z,11.90
2022-12-03T23:13:19.362Z,11.40
2022-12-03T23:15:49.711Z,11.23
2022-12-03T23:18:16.690Z,12.30
2022-12-03T23:20:44.176Z,10.48
2022-12-03T23:23:10.630Z,12.35
2022-12-03T23:25:37.475Z,10.52
2022-12-03T23:28:04.140Z,8.27
2022-12-03T23:30:30.626Z,11.57
2022-12-03T23:32:57.133Z,12.38
2022-12-03T23:35:23.568Z,13.63
2022-12-03T23:37:50.014Z,12.98
2022-12-03T23:40:16.444Z,12.70
2022-12-03T23:42:42.897Z,9.73
2022-12-03T23:45:09.630Z,9.73
2022-12-03T23:47:36.145Z,11.65
2022-12-03T23:50:03.593Z,11.05
2022-12-03T23:52:30.073Z,11.60
2022-12-03T23:54:56.607Z,11.75
2022-12-03T23:57:23.048Z,12.50
2022-12-03T23:59:49.530Z,12.13
